Time;durP1;ratioP1;P1;durP2;ratioP2;P2;SDS_P1;SDS_P2;PMS_P1;PMS_P2;Temp;Humidity;BMP_temperature;BMP_pressure;BME280_temperature;BME280_humidity;BME280_pressure;Samples;Min_cycle;Max_cycle;Signal;HPM_P1;HPM_P2
2023/05/26 00:00:12;;;;;;;11.65;8.68;;;13.10;90.10;;;;;;5075268;28;20426;-74
2023/05/26 00:02:39;;;;;;;10.77;8.40;;;13.10;90.00;;;;;;5083610;28;20429;-74
2023/05/26 00:05:07;;;;;;;10.73;8.87;;;13.00;90.10;;;;;;5083876;28;20493;-75
2023/05/26 00:07:33;;;;;;;11.63;8.70;;;13.00;90.40;;;;;;5088923;28;20414;-74
2023/05/26 00:10:00;;;;;;;8.65;7.78;;;12.90;90.40;;;;;;5072335;28;20985;-75
2023/05/26 00:12:27;;;;;;;11.35;8.70;;;12.90;90.40;;;;;;5078533;28;20430;-74
2023/05/26 00:14:54;;;;;;;9.38;8.38;;;12.80;90.30;;;;;;5079079;28;20427;-74
2023/05/26 00:17:22;;;;;;;9.90;8.00;;;12.80;90.20;;;;;;5080089;28;20824;-74
2023/05/26 00:19:52;;;;;;;11.97;8.57;;;12.70;90.10;;;;;;5085348;28;20465;-74
2023/05/26 00:22:19;;;;;;;11.40;8.20;;;12.70;90.00;;;;;;5079193;28;20978;-74
2023/05/26 00:24:46;;;;;;;12.40;8.27;;;12.70;90.00;;;;;;5088923;28;20418;-74
2023/05/26 00:27:13;;;;;;;10.95;7.40;;;12.70;90.00;;;;;;5098374;28;20816;-74
2023/05/26 00:29:41;;;;;;;11.55;7.60;;;12.60;90.10;;;;;;5082319;28;20805;-74
2023/05/26 00:32:08;;;;;;;12.60;8.70;;;12.60;90.40;;;;;;5088798;28;20849;-74
2023/05/26 00:34:36;;;;;;;13.40;7.85;;;12.60;90.50;;;;;;5079535;28;20801;-74
2023/05/26 00:37:03;;;;;;;11.88;7.80;;;12.50;90.40;;;;;;5087672;28;20425;-75
2023/05/26 00:39:30;;;;;;;9.98;7.00;;;12.50;90.50;;;;;;5089468;28;20811;-74
2023/05/26 00:41:57;;;;;;;11.20;7.78;;;12.50;90.60;;;;;;5085112;28;20769;-74
2023/05/26 00:44:24;;;;;;;14.30;7.90;;;12.50;90.70;;;;;;5083151;28;20429;-75
2023/05/26 00:46:51;;;;;;;12.38;7.78;;;12.40;90.60;;;;;;5084843;28;20425;-74
2023/05/26 00:49:17;;;;;;;15.90;8.05;;;12.40;90.60;;;;;;5080526;28;20421;-75
2023/05/26 00:51:46;;;;;;;15.82;8.43;;;12.40;90.50;;;;;;5083485;28;20433;-75
2023/05/26 00:54:14;;;;;;;13.57;7.60;;;12.30;90.30;;;;;;5082471;28;20611;-74
2023/05/26 00:56:41;;;;;;;12.13;7.57;;;12.30;90.60;;;;;;5077034;28;20939;-74
2023/05/26 00:59:09;;;;;;;9.75;6.60;;;12.20;90.70;;;;;;5077746;28;20425;-74
2023/05/26 01:01:36;;;;;;;15.02;7.50;;;12.20;90.70;;;;;;5077555;28;20429;-74
2023/05/26 01:04:03;;;;;;;10.00;7.10;;;12.20;90.40;;;;;;5082229;28;20478;-73
2023/05/26 01:06:31;;;;;;;12.65;7.70;;;12.20;90.30;;;;;;5078860;28;20856;-73
2023/05/26 01:09:00;;;;;;;14.73;7.63;;;12.20;90.10;;;;;;5068360;28;20435;-75
2023/05/26 01:11:33;;;;;;;16.95;7.80;;;12.10;90.10;;;;;;5073491;28;20463;-74
2023/05/26 01:14:06;;;;;;;14.25;7.32;;;12.10;90.10;;;;;;5080108;28;20428;-74
2023/05/26 01:16:39;;;;;;;12.85;7.70;;;12.10;90.30;;;;;;5081136;28;20458;-74
2023/05/26 01:19:20;;;;;;;13.43;7.15;;;12.00;90.40;;;;;;5077796;28;21014;-74
2023/05/26 01:21:50;;;;;;;18.95;7.18;;;12.00;90.30;;;;;;5082600;28;20406;-74
2023/05/26 01:24:27;;;;;;;9.98;6.30;;;11.90;90.60;;;;;;5079879;28;20423;-74
2023/05/26 01:27:04;;;;;;;13.70;6.60;;;11.80;90.70;;;;;;5081496;28;20429;-74
2023/05/26 01:29:36;;;;;;;14.23;6.00;;;11.80;90.40;;;;;;5080932;28;20430;-74
2023/05/26 01:32:08;;;;;;;13.93;6.65;;;11.80;90.60;;;;;;5080108;28;20630;-74
2023/05/26 01:34:35;;;;;;;14.47;6.43;;;11.80;90.60;;;;;;5078097;28;20513;-74
2023/05/26 01:37:01;;;;;;;12.20;6.63;;;11.70;90.70;;;;;;5077924;28;20417;-74
2023/05/26 01:39:28;;;;;;;15.00;6.10;;;11.70;90.80;;;;;;5069903;28;20758;-73
2023/05/26 01:42:05;;;;;;;15.90;6.70;;;11.70;90.90;;;;;;5079624;28;20417;-74
2023/05/26 01:44:38;;;;;;;12.68;6.00;;;11.70;90.80;;;;;;5077039;28;20868;-74
2023/05/26 01:47:07;;;;;;;17.92;6.70;;;11.70;90.80;;;;;;5072129;28;20428;-74
2023/05/26 01:49:34;;;;;;;13.30;6.00;;;11.60;90.70;;;;;;5074970;28;20440;-74
2023/05/26 01:52:03;;;;;;;11.65;5.30;;;11.60;90.90;;;;;;5073798;28;20430;-74
2023/05/26 01:54:35;;;;;;;15.10;6.30;;;11.60;91.00;;;;;;5084131;28;20731;-74
2023/05/26 01:57:03;;;;;;;13.57;6.00;;;11.50;90.90;;;;;;5079441;28;20429;-74
2023/05/26 01:59:31;;;;;;;15.27;6.68;;;11.50;90.70;;;;;;5078170;28;20453;-74
2023/05/26 02:01:59;;;;;;;14.63;5.85;;;11.50;90.80;;;;;;5081080;28;20429;-74
2023/05/26 02:04:26;;;;;;;16.75;6.03;;;11.40;90.80;;;;;;5067497;28;20428;-74
2023/05/26 02:06:54;;;;;;;12.40;5.72;;;11.40;90.90;;;;;;5064301;28;20412;-74
2023/05/26 02:09:21;;;;;;;13.35;5.97;;;11.40;91.00;;;;;;5075794;28;20426;-75
2023/05/26 02:11:48;;;;;;;10.00;5.10;;;11.40;90.70;;;;;;5074175;28;20419;-73
2023/05/26 02:14:15;;;;;;;14.60;5.70;;;11.40;90.60;;;;;;5073897;28;20412;-74
2023/05/26 02:16:43;;;;;;;13.15;5.68;;;11.40;90.60;;;;;;5081550;28;20433;-74
2023/05/26 02:19:12;;;;;;;15.63;6.10;;;11.30;90.80;;;;;;5072865;28;23104;-74
2023/05/26 02:21:39;;;;;;;13.52;5.93;;;11.30;90.80;;;;;;5077794;28;20511;-74
2023/05/26 02:24:06;;;;;;;13.07;5.70;;;11.20;91.00;;;;;;5064926;28;20427;-74
2023/05/26 02:26:33;;;;;;;17.43;6.03;;;11.20;91.20;;;;;;5074005;28;20896;-74
2023/05/26 02:29:01;;;;;;;12.85;5.70;;;11.20;91.00;;;;;;5071425;28;20427;-74
2023/05/26 02:31:28;;;;;;;14.90;6.03;;;11.10;91.00;;;;;;5076252;28;20459;-74
2023/05/26 02:33:55;;;;;;;13.98;5.50;;;11.10;91.10;;;;;;5081427;28;20419;-74
2023/05/26 02:36:23;;;;;;;14.07;5.88;;;11.10;91.20;;;;;;5077992;28;20427;-74
2023/05/26 02:38:50;;;;;;;14.35;5.68;;;11.10;91.10;;;;;;5065174;28;20443;-75
2023/05/26 02:41:17;;;;;;;14.13;5.80;;;11.10;91.20;;;;;;5080462;28;20425;-73
2023/05/26 02:43:43;;;;;;;12.73;5.47;;;11.10;91.00;;;;;;5071464;28;20569;-74
2023/05/26 02:46:11;;;;;;;16.30;6.20;;;11.00;90.90;;;;;;5076684;28;20822;-74
2023/05/26 02:48:38;;;;;;;14.48;5.05;;;11.00;91.00;;;;;;5077935;28;20826;-74
2023/05/26 02:51:05;;;;;;;16.00;6.43;;;11.00;90.90;;;;;;5083413;28;20432;-74
2023/05/26 02:53:33;;;;;;;19.80;6.23;;;10.90;91.20;;;;;;5080703;28;20433;-73
2023/05/26 02:56:00;;;;;;;14.55;5.05;;;10.90;91.40;;;;;;5064504;28;20423;-74
2023/05/26 02:58:27;;;;;;;15.83;6.20;;;10.90;91.40;;;;;;5081437;28;20409;-74
2023/05/26 03:00:54;;;;;;;12.55;4.80;;;10.90;91.50;;;;;;5077637;28;20459;-75
2023/05/26 03:03:21;;;;;;;11.13;6.10;;;10.80;91.50;;;;;;5082379;28;20508;-74
2023/05/26 03:05:47;;;;;;;15.13;6.22;;;10.80;91.60;;;;;;5079106;28;20436;-74
2023/05/26 03:08:14;;;;;;;16.05;5.70;;;10.80;91.50;;;;;;5065998;28;20419;-74
2023/05/26 03:13:12;;;;;;;12.93;5.50;;;10.80;91.50;;;;;;5040196;28;20441;-76
2023/05/26 03:15:43;;;;;;;12.98;5.00;;;10.80;91.70;;;;;;5038244;28;20424;-75
2023/05/26 03:18:10;;;;;;;14.68;4.97;;;10.80;91.70;;;;;;5039761;28;20599;-76
2023/05/26 03:20:37;;;;;;;13.27;4.90;;;10.70;91.70;;;;;;5042305;28;20787;-76
2023/05/26 03:23:04;;;;;;;16.02;5.35;;;10.70;91.60;;;;;;5041371;28;20418;-75
2023/05/26 03:25:30;;;;;;;17.45;5.50;;;10.60;91.70;;;;;;5041543;28;20440;-74
2023/05/26 03:27:57;;;;;;;14.13;5.60;;;10.60;91.80;;;;;;5041568;28;20436;-75
2023/05/26 03:30:25;;;;;;;14.23;6.10;;;10.60;91.90;;;;;;5041196;28;20433;-74
2023/05/26 03:32:52;;;;;;;14.57;5.60;;;10.60;91.90;;;;;;5040788;28;20428;-75
2023/05/26 03:35:19;;;;;;;16.58;6.25;;;10.60;92.10;;;;;;5046655;28;20906;-75
2023/05/26 03:37:45;;;;;;;14.55;5.80;;;10.60;92.10;;;;;;5051148;28;20520;-73
2023/05/26 03:40:14;;;;;;;17.58;5.95;;;10.60;92.10;;;;;;5044885;28;20440;-75
2023/05/26 03:42:40;;;;;;;14.45;6.00;;;10.50;92.20;;;;;;5048036;28;20922;-75
2023/05/26 03:45:08;;;;;;;16.77;6.30;;;10.50;92.20;;;;;;5039672;28;20425;-75
2023/05/26 03:47:36;;;;;;;16.73;5.80;;;10.50;92.30;;;;;;5038241;28;21044;-75
2023/05/26 03:50:03;;;;;;;15.27;5.72;;;10.50;92.40;;;;;;5047681;28;20428;-75
2023/05/26 03:52:30;;;;;;;12.13;4.97;;;10.50;92.40;;;;;;5042791;28;20429;-76
2023/05/26 03:54:57;;;;;;;16.58;5.68;;;10.50;92.40;;;;;;5041737;28;20429;-77
2023/05/26 03:57:23;;;;;;;16.08;5.70;;;10.40;92.60;;;;;;5044404;28;20452;-76
2023/05/26 03:59:50;;;;;;;18.02;6.22;;;10.40;92.60;;;;;;5045311;28;20441;-76
2023/05/26 04:02:19;;;;;;;16.67;6.00;;;10.40;92.60;;;;;;5042964;28;20540;-76
2023/05/26 04:04:47;;;;;;;15.38;5.85;;;10.40;92.80;;;;;;5045282;28;20461;-76
2023/05/26 04:07:14;;;;;;;12.95;5.00;;;10.40;92.70;;;;;;5053760;28;20778;-75
2023/05/26 04:09:40;;;;;;;15.43;6.15;;;10.40;92.80;;;;;;5051076;28;20430;-76
2023/05/26 04:12:08;;;;;;;16.48;6.00;;;10.40;92.80;;;;;;5053695;28;20441;-77
2023/05/26 04:14:34;;;;;;;16.15;7.22;;;10.40;92.80;;;;;;5050187;28;20425;-77
2023/05/26 04:17:01;;;;;;;17.08;8.40;;;10.40;92.90;;;;;;5047217;28;20425;-78
2023/05/26 04:19:28;;;;;;;14.63;5.93;;;10.40;92.90;;;;;;5046756;28;20427;-76
2023/05/26 04:21:56;;;;;;;16.52;6.35;;;10.40;92.90;;;;;;5044639;28;20823;-75
2023/05/26 04:24:23;;;;;;;17.13;8.00;;;10.50;93.00;;;;;;5034535;28;20425;-76
2023/05/26 04:26:52;;;;;;;16.00;6.70;;;10.50;92.90;;;;;;5034896;28;20422;-75
2023/05/26 04:29:20;;;;;;;17.85;5.88;;;10.50;93.00;;;;;;5041952;28;20447;-76
2023/05/26 04:31:46;;;;;;;10.75;5.80;;;10.50;92.90;;;;;;5034348;28;20433;-74
2023/05/26 04:34:13;;;;;;;15.73;6.43;;;10.50;93.00;;;;;;5040747;28;20947;-75
2023/05/26 04:36:40;;;;;;;17.10;5.80;;;10.50;92.80;;;;;;5040816;28;20465;-77
2023/05/26 04:39:09;;;;;;;19.50;6.05;;;10.40;92.90;;;;;;5042740;28;20436;-76
2023/05/26 04:41:38;;;;;;;14.95;6.65;;;10.50;93.00;;;;;;5041167;28;20522;-76
2023/05/26 04:44:05;;;;;;;15.52;6.68;;;10.50;93.00;;;;;;5043713;28;20463;-75
2023/05/26 04:46:32;;;;;;;15.98;6.53;;;10.50;93.00;;;;;;5044397;28;20535;-77
2023/05/26 04:48:59;;;;;;;14.00;6.00;;;10.50;93.00;;;;;;5053408;28;20841;-76
2023/05/26 04:51:26;;;;;;;12.63;6.05;;;10.50;93.00;;;;;;5042621;28;20413;-76
2023/05/26 04:53:53;;;;;;;15.32;6.80;;;10.50;93.10;;;;;;5040326;28;20437;-72
2023/05/26 04:56:21;;;;;;;17.63;6.70;;;10.50;93.10;;;;;;5046080;28;20675;-74
2023/05/26 04:58:48;;;;;;;14.77;6.07;;;10.60;93.40;;;;;;5041163;28;20881;-74
2023/05/26 05:01:16;;;;;;;14.23;6.80;;;10.60;93.40;;;;;;5043961;28;20600;-75
2023/05/26 05:03:43;;;;;;;20.33;7.68;;;10.60;93.20;;;;;;5039094;28;20453;-74
2023/05/26 05:06:10;;;;;;;16.10;7.18;;;10.70;93.20;;;;;;5037207;28;20460;-74
2023/05/26 05:08:37;;;;;;;19.20;8.27;;;10.70;92.90;;;;;;5047921;28;20455;-74
2023/05/26 05:11:04;;;;;;;19.20;8.95;;;10.70;93.10;;;;;;5046533;28;20427;-73
2023/05/26 05:13:33;;;;;;;17.17;8.57;;;10.70;92.90;;;;;;5045656;28;20775;-72
2023/05/26 05:16:00;;;;;;;17.02;8.02;;;10.70;93.10;;;;;;5038100;28;20457;-73
2023/05/26 05:18:27;;;;;;;17.67;8.43;;;10.70;93.10;;;;;;5043110;28;20432;-73
2023/05/26 05:20:54;;;;;;;19.50;8.55;;;10.70;93.00;;;;;;5042509;28;20429;-72
2023/05/26 05:23:21;;;;;;;18.02;8.00;;;10.80;93.20;;;;;;5047903;28;20437;-73
2023/05/26 05:25:48;;;;;;;16.15;8.70;;;10.80;93.00;;;;;;5044698;28;20614;-72
2023/05/26 05:28:14;;;;;;;17.65;8.80;;;10.80;93.00;;;;;;5038563;28;20488;-72
2023/05/26 05:30:42;;;;;;;19.13;9.30;;;10.90;93.00;;;;;;5037734;28;20512;-73
2023/05/26 05:33:09;;;;;;;16.77;9.95;;;10.90;93.10;;;;;;5046109;28;20713;-74
2023/05/26 05:35:36;;;;;;;17.63;10.18;;;10.90;93.10;;;;;;5041748;28;20429;-71
2023/05/26 05:38:02;;;;;;;17.85;9.02;;;10.90;93.00;;;;;;5044748;28;20433;-74
2023/05/26 05:40:29;;;;;;;21.63;10.45;;;11.00;93.10;;;;;;5055284;28;20438;-73
2023/05/26 05:42:56;;;;;;;21.25;9.68;;;11.00;93.10;;;;;;5038893;28;20492;-73
2023/05/26 05:45:23;;;;;;;19.73;10.27;;;11.00;93.10;;;;;;5036700;28;20451;-74
2023/05/26 05:47:51;;;;;;;18.95;10.05;;;11.10;92.80;;;;;;5037287;28;20433;-75
2023/05/26 05:50:19;;;;;;;17.70;10.02;;;11.20;92.80;;;;;;5036278;28;20879;-74
2023/05/26 05:52:45;;;;;;;16.35;10.80;;;11.20;92.90;;;;;;5040455;28;20460;-73
2023/05/26 05:55:12;;;;;;;19.48;10.23;;;11.20;92.90;;;;;;5040328;28;20440;-74
2023/05/26 05:57:39;;;;;;;17.60;10.88;;;11.20;92.40;;;;;;5041210;28;20429;-75
2023/05/26 06:00:09;;;;;;;15.85;9.40;;;11.30;92.70;;;;;;5039775;28;20431;-73
2023/05/26 06:02:36;;;;;;;18.55;10.40;;;11.30;92.60;;;;;;5034466;28;20433;-72
2023/05/26 06:05:05;;;;;;;18.20;9.88;;;11.40;92.70;;;;;;5043990;28;20452;-73
2023/05/26 06:07:32;;;;;;;20.25;10.88;;;11.40;92.50;;;;;;5043670;28;20484;-72
2023/05/26 06:09:59;;;;;;;20.63;10.18;;;11.40;92.50;;;;;;5044313;28;20421;-73
2023/05/26 06:12:26;;;;;;;18.58;10.80;;;11.50;92.50;;;;;;5054807;28;20483;-73
2023/05/26 06:14:53;;;;;;;20.00;10.90;;;11.60;92.30;;;;;;5043131;28;20437;-73
2023/05/26 06:17:19;;;;;;;17.52;10.23;;;11.60;92.30;;;;;;5045246;28;20433;-73
2023/05/26 06:19:46;;;;;;;17.65;10.30;;;11.70;91.90;;;;;;5039154;28;20463;-73
2023/05/26 06:22:14;;;;;;;20.30;10.15;;;11.80;91.70;;;;;;5046480;28;20429;-75
2023/05/26 06:24:41;;;;;;;17.40;10.68;;;11.90;91.50;;;;;;5049288;28;20456;-73
2023/05/26 06:27:08;;;;;;;17.95;10.60;;;11.90;91.20;;;;;;5045136;28;20437;-74
2023/05/26 06:29:34;;;;;;;16.98;9.40;;;12.00;91.20;;;;;;5045346;28;21041;-75
2023/05/26 06:32:01;;;;;;;18.30;9.80;;;12.10;91.30;;;;;;5045537;28;20457;-74
2023/05/26 06:34:28;;;;;;;18.65;11.32;;;12.20;91.10;;;;;;5044480;28;20425;-75
2023/05/26 06:36:55;;;;;;;19.15;10.48;;;12.20;90.80;;;;;;5049223;28;20655;-77
2023/05/26 06:39:25;;;;;;;20.45;11.10;;;12.30;90.60;;;;;;5041622;28;20518;-74
2023/05/26 06:41:51;;;;;;;17.58;10.40;;;12.40;90.40;;;;;;5057492;28;20479;-73
2023/05/26 06:44:18;;;;;;;16.77;10.40;;;12.50;90.40;;;;;;5039442;28;20437;-72
2023/05/26 06:46:45;;;;;;;17.42;10.15;;;12.60;90.10;;;;;;5041865;28;20413;-73
2023/05/26 06:49:12;;;;;;;17.83;11.18;;;12.70;89.90;;;;;;5043728;28;20453;-73
2023/05/26 06:51:38;;;;;;;17.00;10.98;;;12.80;88.80;;;;;;5057614;28;20423;-73
2023/05/26 06:54:05;;;;;;;19.83;10.70;;;12.90;88.40;;;;;;5044910;28;20432;-73
2023/05/26 06:56:34;;;;;;;18.38;10.95;;;13.00;88.30;;;;;;5045353;28;20432;-73
2023/05/26 06:59:00;;;;;;;17.48;10.95;;;13.10;88.10;;;;;;5052462;28;21025;-73
2023/05/26 07:01:27;;;;;;;18.23;10.90;;;13.20;87.10;;;;;;5044890;28;20436;-73
2023/05/26 07:03:54;;;;;;;18.63;10.20;;;13.40;86.40;;;;;;5050218;28;20756;-73
2023/05/26 07:06:20;;;;;;;20.30;11.00;;;13.50;85.00;;;;;;5053436;28;20486;-73
2023/05/26 07:08:47;;;;;;;18.95;9.95;;;13.70;84.00;;;;;;5044069;28;20882;-74
2023/05/26 07:11:14;;;;;;;19.92;10.23;;;13.80;84.20;;;;;;5054842;28;20424;-72
2023/05/26 07:13:42;;;;;;;16.92;9.73;;;13.90;83.90;;;;;;5044676;28;20896;-72
2023/05/26 07:16:09;;;;;;;16.60;9.93;;;14.10;83.50;;;;;;5059915;28;20752;-73
2023/05/26 07:18:36;;;;;;;17.23;10.20;;;14.20;82.30;;;;;;5042548;28;20441;-71
2023/05/26 07:21:02;;;;;;;19.98;9.10;;;14.30;81.70;;;;;;5057122;28;20879;-73
2023/05/26 07:23:29;;;;;;;17.90;9.40;;;14.40;80.50;;;;;;5050640;28;20520;-73
2023/05/26 07:25:56;;;;;;;18.95;9.30;;;14.50;79.90;;;;;;5044188;28;20440;-72
2023/05/26 07:28:23;;;;;;;16.85;8.98;;;14.60;79.30;;;;;;5030150;28;20445;-73
2023/05/26 07:30:51;;;;;;;16.80;9.00;;;14.70;79.20;;;;;;5055813;28;20423;-72
2023/05/26 07:33:18;;;;;;;17.53;9.80;;;14.80;78.20;;;;;;5043259;28;20849;-73
2023/05/26 07:35:45;;;;;;;18.13;9.20;;;15.00;76.90;;;;;;5042912;28;20413;-72
2023/05/26 07:38:11;;;;;;;15.27;9.60;;;15.00;76.30;;;;;;5050779;28;20779;-72
2023/05/26 07:40:39;;;;;;;18.92;9.82;;;15.10;76.40;;;;;;5050932;28;20424;-72
2023/05/26 07:43:11;;;;;;;18.42;9.25;;;15.20;75.50;;;;;;5046549;28;20441;-72
2023/05/26 07:45:38;;;;;;;20.17;9.60;;;15.40;75.20;;;;;;5050014;28;20450;-75
2023/05/26 07:48:06;;;;;;;16.63;8.57;;;15.50;76.30;;;;;;5057216;28;20454;-73
2023/05/26 07:50:32;;;;;;;15.70;8.60;;;15.70;75.90;;;;;;5052595;28;20440;-71
2023/05/26 07:52:59;;;;;;;17.77;8.57;;;15.90;74.00;;;;;;5053556;28;20421;-73
2023/05/26 07:55:26;;;;;;;16.67;8.38;;;16.00;73.30;;;;;;5047344;28;20526;-72
2023/05/26 07:57:53;;;;;;;13.60;8.48;;;16.10;71.90;;;;;;5043043;28;20417;-72
2023/05/26 08:00:20;;;;;;;15.25;9.10;;;16.20;70.70;;;;;;5050681;28;20444;-73
2023/05/26 08:02:46;;;;;;;18.25;9.40;;;16.30;70.30;;;;;;5051992;28;20409;-73
2023/05/26 08:05:14;;;;;;;16.63;8.50;;;16.40;70.70;;;;;;5045023;28;20433;-72
2023/05/26 08:07:41;;;;;;;14.68;8.07;;;16.50;70.30;;;;;;5054159;28;20429;-74
2023/05/26 08:10:09;;;;;;;16.52;8.50;;;16.70;69.10;;;;;;5051282;28;20532;-73
2023/05/26 08:12:36;;;;;;;16.15;8.80;;;16.80;68.70;;;;;;5052918;28;20443;-73
2023/05/26 08:15:04;;;;;;;16.63;8.88;;;17.00;68.50;;;;;;5049260;28;20475;-73
2023/05/26 08:17:31;;;;;;;16.00;7.90;;;17.10;67.90;;;;;;5040143;28;20440;-73
2023/05/26 08:19:58;;;;;;;12.18;7.70;;;17.30;67.60;;;;;;5041489;28;20437;-72
2023/05/26 08:22:26;;;;;;;14.00;8.50;;;17.40;66.70;;;;;;5039356;28;20437;-73
2023/05/26 08:24:53;;;;;;;13.65;8.52;;;17.60;64.70;;;;;;5042232;28;20432;-74
2023/05/26 08:27:20;;;;;;;15.75;7.85;;;17.70;65.10;;;;;;5044898;28;20811;-73
2023/05/26 08:29:46;;;;;;;13.45;7.60;;;17.80;64.50;;;;;;5041834;28;20489;-72
2023/05/26 08:32:13;;;;;;;14.60;8.10;;;17.90;63.20;;;;;;5042192;28;20439;-73
2023/05/26 08:34:42;;;;;;;15.33;8.60;;;18.00;63.10;;;;;;5060521;28;20422;-75
2023/05/26 08:37:11;;;;;;;12.37;7.43;;;18.20;63.00;;;;;;5040769;28;20456;-74
2023/05/26 08:39:39;;;;;;;16.00;7.77;;;18.40;62.00;;;;;;5042044;28;20425;-74
2023/05/26 08:42:07;;;;;;;13.57;7.57;;;18.60;60.90;;;;;;5041611;28;20436;-74
2023/05/26 08:44:35;;;;;;;14.15;7.93;;;18.70;59.80;;;;;;5040805;28;20440;-74
2023/05/26 08:47:04;;;;;;;12.38;7.40;;;18.80;58.30;;;;;;5045958;28;20513;-75
2023/05/26 08:49:36;;;;;;;14.88;8.00;;;18.90;58.60;;;;;;5046133;28;20413;-74
2023/05/26 08:52:06;;;;;;;12.63;7.43;;;19.00;59.00;;;;;;5041111;28;20499;-75
2023/05/26 08:54:33;;;;;;;13.95;7.78;;;19.10;58.70;;;;;;5046671;28;20791;-75
2023/05/26 08:57:04;;;;;;;14.93;8.27;;;19.30;57.80;;;;;;5050257;28;21519;-75
2023/05/26 08:59:32;;;;;;;13.95;7.88;;;19.40;58.00;;;;;;5045341;28;20427;-75
2023/05/26 09:01:59;;;;;;;13.05;7.63;;;19.50;57.30;;;;;;5056664;28;20442;-75
2023/05/26 09:04:27;;;;;;;14.07;8.90;;;19.60;56.20;;;;;;5054982;28;20425;-75
2023/05/26 09:06:54;;;;;;;13.02;7.97;;;19.60;54.80;;;;;;5051692;28;20433;-76
2023/05/26 09:09:21;;;;;;;13.90;8.67;;;19.70;55.50;;;;;;5047438;28;20448;-75
2023/05/26 09:11:47;;;;;;;15.15;7.75;;;19.70;55.20;;;;;;5073796;22;20922;-75
2023/05/26 09:14:17;;;;;;;13.90;7.00;;;19.80;56.80;;;;;;5064663;28;20435;-75
2023/05/26 09:16:44;;;;;;;11.45;7.05;;;20.00;57.50;;;;;;5068833;28;20423;-76
2023/05/26 09:19:14;;;;;;;12.90;6.57;;;20.10;53.70;;;;;;5075801;28;20518;-75
2023/05/26 09:21:45;;;;;;;12.90;8.00;;;20.40;55.40;;;;;;5088955;28;20454;-76
2023/05/26 09:24:15;;;;;;;11.25;7.40;;;20.60;52.20;;;;;;5091553;28;20408;-78
2023/05/26 09:26:42;;;;;;;13.15;6.30;;;20.70;51.70;;;;;;5079716;28;20427;-74
2023/05/26 09:29:09;;;;;;;13.48;7.25;;;20.70;52.00;;;;;;5070678;28;20432;-74
2023/05/26 09:31:41;;;;;;;11.45;6.80;;;20.80;50.20;;;;;;5067525;28;20437;-74
2023/05/26 09:34:09;;;;;;;12.88;6.75;;;20.90;50.40;;;;;;5066883;28;20428;-74
2023/05/26 09:36:37;;;;;;;11.50;7.10;;;21.00;50.40;;;;;;5069185;28;20420;-75
2023/05/26 09:39:06;;;;;;;14.48;7.85;;;21.20;50.70;;;;;;5068136;28;20594;-73
2023/05/26 09:41:37;;;;;;;12.55;6.90;;;21.30;50.50;;;;;;5069510;28;20917;-76
2023/05/26 09:44:11;;;;;;;16.77;7.50;;;21.50;49.80;;;;;;5071122;28;20431;-73
2023/05/26 09:46:40;;;;;;;9.70;6.20;;;21.70;48.40;;;;;;5069983;28;20439;-72
2023/05/26 09:49:12;;;;;;;13.07;7.13;;;21.80;48.60;;;;;;5069902;28;20418;-73
2023/05/26 09:51:39;;;;;;;11.60;6.35;;;21.80;47.60;;;;;;5066872;28;20527;-75
2023/05/26 09:54:06;;;;;;;13.45;7.00;;;21.80;47.40;;;;;;5062846;28;20446;-73
2023/05/26 09:56:35;;;;;;;13.18;7.00;;;21.90;47.40;;;;;;5068097;28;20431;-73
2023/05/26 09:59:05;;;;;;;15.68;7.25;;;22.00;46.90;;;;;;5063730;28;20427;-75
2023/05/26 10:01:34;;;;;;;15.05;7.10;;;22.00;46.50;;;;;;5067199;28;20589;-75
2023/05/26 10:04:06;;;;;;;13.00;7.20;;;21.90;46.80;;;;;;5067879;28;20439;-71
2023/05/26 10:06:35;;;;;;;13.02;6.82;;;22.00;47.00;;;;;;5069633;28;20435;-72
2023/05/26 10:09:04;;;;;;;12.82;6.57;;;22.10;46.90;;;;;;5071295;28;20432;-73
2023/05/26 10:11:33;;;;;;;13.35;6.53;;;22.30;45.90;;;;;;5070513;28;20859;-71
2023/05/26 10:14:00;;;;;;;13.60;5.90;;;22.40;46.30;;;;;;5069235;28;20809;-71
2023/05/26 10:16:28;;;;;;;11.15;6.50;;;22.50;46.20;;;;;;5070795;28;20424;-74
2023/05/26 10:18:54;;;;;;;12.52;6.00;;;22.60;45.40;;;;;;5070637;28;20435;-71
2023/05/26 10:21:28;;;;;;;10.85;6.35;;;22.60;44.90;;;;;;5069971;28;20438;-72
2023/05/26 10:24:07;;;;;;;10.07;5.80;;;22.80;45.50;;;;;;5070309;28;20442;-72
2023/05/26 10:26:44;;;;;;;12.60;6.00;;;23.00;46.10;;;;;;5068876;28;20936;-73
2023/05/26 10:29:15;;;;;;;12.80;5.90;;;23.10;43.90;;;;;;5067949;28;20435;-73
2023/05/26 10:31:42;;;;;;;12.15;5.80;;;23.20;43.60;;;;;;5073982;28;20439;-72
2023/05/26 10:34:13;;;;;;;11.00;6.27;;;23.30;43.10;;;;;;5087363;28;20422;-71
2023/05/26 10:36:42;;;;;;;11.05;5.40;;;23.30;42.60;;;;;;5092516;28;20431;-71
2023/05/26 10:39:13;;;;;;;10.85;5.90;;;23.40;43.00;;;;;;5088400;28;20427;-72
2023/05/26 10:41:41;;;;;;;12.45;6.18;;;23.50;43.30;;;;;;5080311;28;20905;-73
2023/05/26 10:44:40;;;;;;;10.73;5.75;;;23.60;42.80;;;;;;5072657;28;20553;-72
2023/05/26 10:47:07;;;;;;;11.30;6.03;;;23.80;42.30;;;;;;5067177;28;20736;-71
2023/05/26 10:49:36;;;;;;;11.05;5.50;;;23.90;42.00;;;;;;5068907;28;20415;-71
2023/05/26 10:52:12;;;;;;;8.88;5.50;;;24.00;42.80;;;;;;5070239;28;20435;-71
2023/05/26 10:54:39;;;;;;;11.70;5.13;;;24.10;41.60;;;;;;5071324;28;20442;-72
2023/05/26 10:57:06;;;;;;;11.32;5.80;;;24.10;41.60;;;;;;5082864;28;20440;-72
2023/05/26 10:59:35;;;;;;;12.00;5.43;;;24.10;41.00;;;;;;5076967;28;20427;-69
2023/05/26 11:02:03;;;;;;;8.60;5.20;;;24.20;41.10;;;;;;5073110;28;20574;-70
2023/05/26 11:04:41;;;;;;;11.70;6.00;;;24.20;42.10;;;;;;5074440;28;20434;-71
2023/05/26 11:07:16;;;;;;;11.60;5.40;;;24.40;40.90;;;;;;5068785;28;20841;-71
2023/05/26 11:09:58;;;;;;;11.35;5.70;;;24.40;40.70;;;;;;5079295;28;20427;-68
2023/05/26 11:12:25;;;;;;;12.73;5.88;;;24.40;40.70;;;;;;5075716;28;20431;-70
2023/05/26 11:14:51;;;;;;;11.32;5.95;;;24.40;41.00;;;;;;5071123;28;20917;-72
2023/05/26 11:17:20;;;;;;;8.70;5.10;;;24.50;40.80;;;;;;5071900;28;20447;-70
2023/05/26 11:19:55;;;;;;;10.90;5.18;;;24.80;40.40;;;;;;5075385;28;20436;-70
2023/05/26 11:22:24;;;;;;;10.30;5.15;;;25.00;39.80;;;;;;5080107;28;20435;-71
2023/05/26 11:24:51;;;;;;;9.52;4.97;;;25.20;39.30;;;;;;5079500;28;20423;-71
2023/05/26 11:27:19;;;;;;;8.32;5.20;;;25.30;38.90;;;;;;5080794;28;20420;-72
2023/05/26 11:29:49;;;;;;;7.82;5.00;;;25.40;39.00;;;;;;5085768;28;20446;-71
2023/05/26 11:32:15;;;;;;;9.43;5.28;;;25.40;38.30;;;;;;5078021;28;20427;-71
2023/05/26 11:34:42;;;;;;;10.35;5.00;;;25.50;37.90;;;;;;5079779;28;20442;-71
2023/05/26 11:37:10;;;;;;;9.17;5.20;;;25.60;38.10;;;;;;5057770;28;20419;-72
2023/05/26 11:39:39;;;;;;;9.13;5.05;;;25.70;37.80;;;;;;5055846;28;20424;-70
2023/05/26 11:42:10;;;;;;;10.37;4.67;;;25.80;37.90;;;;;;5050950;28;20455;-70
2023/05/26 11:44:36;;;;;;;8.05;5.00;;;26.00;37.00;;;;;;5046186;28;20437;-72
2023/05/26 11:47:04;;;;;;;10.57;5.78;;;26.30;36.50;;;;;;5052752;28;20419;-70
2023/05/26 11:49:32;;;;;;;8.35;4.53;;;26.50;37.10;;;;;;5048547;28;21612;-69
2023/05/26 11:51:59;;;;;;;8.00;4.80;;;26.50;35.90;;;;;;5050059;28;20431;-68
2023/05/26 11:54:26;;;;;;;8.35;5.20;;;26.80;36.40;;;;;;5052403;28;20423;-72
2023/05/26 11:56:54;;;;;;;7.28;4.30;;;26.90;36.00;;;;;;5053665;28;20434;-71
2023/05/26 11:59:22;;;;;;;9.38;5.20;;;27.00;35.80;;;;;;5058068;28;20868;-71
2023/05/26 12:01:49;;;;;;;8.80;4.40;;;26.90;34.90;;;;;;5056475;28;20443;-75
2023/05/26 12:04:25;;;;;;;9.55;4.50;;;26.90;35.30;;;;;;5049660;28;20433;-75
2023/05/26 12:06:52;;;;;;;6.78;4.18;;;26.90;35.10;;;;;;5040513;28;20436;-78
2023/05/26 12:09:21;;;;;;;7.88;4.60;;;26.80;34.90;;;;;;5040247;28;20793;-72
2023/05/26 12:11:49;;;;;;;7.38;4.57;;;26.50;34.60;;;;;;5036229;28;20447;-76
2023/05/26 12:14:17;;;;;;;8.23;4.53;;;26.50;35.90;;;;;;5040494;28;20852;-76
2023/05/26 12:16:45;;;;;;;8.25;4.53;;;26.60;35.70;;;;;;5039631;28;22311;-70
2023/05/26 12:19:14;;;;;;;7.60;4.10;;;26.70;34.40;;;;;;5037331;28;20952;-72
2023/05/26 12:21:42;;;;;;;6.93;4.25;;;27.00;35.40;;;;;;5038121;28;20439;-70
2023/05/26 12:24:09;;;;;;;8.90;4.20;;;27.30;35.10;;;;;;5041704;28;20443;-70
2023/05/26 12:26:36;;;;;;;7.57;4.73;;;27.90;35.20;;;;;;5042539;28;20427;-72
2023/05/26 12:29:08;;;;;;;8.68;4.63;;;27.80;34.00;;;;;;5069844;28;20438;-70
2023/05/26 12:31:41;;;;;;;6.15;3.85;;;27.70;34.10;;;;;;5065928;28;20466;-71
2023/05/26 12:34:08;;;;;;;8.70;4.10;;;27.70;35.20;;;;;;5067497;28;20451;-72
2023/05/26 12:36:35;;;;;;;8.93;4.30;;;27.90;35.00;;;;;;5073748;28;20418;-72
2023/05/26 12:39:02;;;;;;;8.97;4.40;;;27.90;33.70;;;;;;5074736;28;20423;-73
2023/05/26 12:41:29;;;;;;;7.28;3.80;;;27.80;33.20;;;;;;5071090;28;20427;-71
2023/05/26 12:43:56;;;;;;;7.43;3.90;;;28.00;33.40;;;;;;5071832;28;20423;-75